createdAt,value
2018-02-20T00:01:42.942Z,54.90
2018-02-20T00:04:10.458Z,54.38
2018-02-20T00:06:38.003Z,55.40
2018-02-20T00:09:05.518Z,53.08
2018-02-20T00:11:33.034Z,46.88
2018-02-20T00:14:01.311Z,52.03
2018-02-20T00:16:28.853Z,57.88
2018-02-20T00:18:56.403Z,58.38
2018-02-20T00:21:23.914Z,52.50
2018-02-20T00:23:51.448Z,54.83
2018-02-20T00:26:18.991Z,51.53
2018-02-20T00:28:46.499Z,50.60
2018-02-20T00:31:14.008Z,52.22
2018-02-20T00:33:41.564Z,51.83
2018-02-20T00:36:09.067Z,56.85
2018-02-20T00:38:36.582Z,50.70
2018-02-20T00:41:04.117Z,49.80
2018-02-20T00:43:31.638Z,53.85
2018-02-20T00:45:59.142Z,50.55
2018-02-20T00:48:26.629Z,50.92
2018-02-20T00:50:54.186Z,48.13
2018-02-20T00:53:21.673Z,47.85
2018-02-20T00:55:49.220Z,55.08
2018-02-20T00:58:16.708Z,50.00
2018-02-20T01:00:44.226Z,47.40
2018-02-20T01:03:12.516Z,59.65
2018-02-20T01:05:40.777Z,47.15
2018-02-20T01:08:09.031Z,50.12
2018-02-20T01:10:36.593Z,50.15
2018-02-20T01:13:04.101Z,48.92
2018-02-20T01:15:31.623Z,49.03
2018-02-20T01:17:59.116Z,46.30
2018-02-20T01:20:26.664Z,51.60
2018-02-20T01:22:54.947Z,52.17
2018-02-20T01:25:22.501Z,49.20
2018-02-20T01:27:50.766Z,50.72
2018-02-20T01:30:19.043Z,56.22
2018-02-20T01:32:47.328Z,53.85
2018-02-20T01:35:14.854Z,50.03
2018-02-20T01:37:42.347Z,62.08
2018-02-20T01:40:10.651Z,51.70
2018-02-20T01:42:38.153Z,53.25
2018-02-20T01:45:05.668Z,49.88
2018-02-20T01:47:33.168Z,52.53
2018-02-20T01:50:01.492Z,53.03
2018-02-20T01:52:29.017Z,54.28
2018-02-20T01:54:57.272Z,52.40
2018-02-20T01:57:24.813Z,52.72
2018-02-20T01:59:52.332Z,55.17
2018-02-20T02:02:19.882Z,50.05
2018-02-20T02:04:48.136Z,52.80
2018-02-20T02:07:16.445Z,49.80
2018-02-20T02:09:43.943Z,49.45
2018-02-20T02:12:11.479Z,61.53
2018-02-20T02:14:39.001Z,57.50
2018-02-20T02:17:07.281Z,59.45
2018-02-20T02:19:35.564Z,51.22
2018-02-20T02:22:03.083Z,55.67
2018-02-20T02:24:30.569Z,55.08
2018-02-20T02:26:59.138Z,49.70
2018-02-20T02:29:26.653Z,53.00
2018-02-20T02:31:54.211Z,52.97
2018-02-20T02:34:21.708Z,55.67
2018-02-20T02:36:50.004Z,54.55
2018-02-20T02:39:18.415Z,58.22
2018-02-20T02:41:45.912Z,56.88
2018-02-20T02:44:13.429Z,53.08
2018-02-20T02:46:40.939Z,53.03
2018-02-20T02:49:08.459Z,57.75
2018-02-20T02:51:35.971Z,54.88
2018-02-20T02:54:04.233Z,53.63
2018-02-20T02:56:31.739Z,47.05
2018-02-20T02:58:59.240Z,52.65
2018-02-20T03:01:26.761Z,50.50
2018-02-20T03:03:54.264Z,51.65
2018-02-20T03:06:21.773Z,49.08
2018-02-20T03:08:49.308Z,49.72
2018-02-20T03:11:17.621Z,53.80
2018-02-20T03:13:45.167Z,50.60
2018-02-20T03:16:12.694Z,53.00
2018-02-20T03:18:40.984Z,55.20
2018-02-20T03:21:08.524Z,51.88
2018-02-20T03:23:36.828Z,51.47
2018-02-20T03:26:04.347Z,51.20
2018-02-20T03:28:31.857Z,53.28
2018-02-20T03:30:59.378Z,57.17
2018-02-20T03:33:27.639Z,54.95
2018-02-20T03:35:55.162Z,53.13
2018-02-20T03:38:22.720Z,48.42
2018-02-20T03:40:50.234Z,49.35
2018-02-20T03:43:18.536Z,52.10
2018-02-20T03:45:46.094Z,51.05
2018-02-20T03:48:13.650Z,51.17
2018-02-20T03:50:41.158Z,49.53
2018-02-20T03:53:08.710Z,50.90
2018-02-20T03:55:36.200Z,48.67
2018-02-20T03:58:04.515Z,47.17
2018-02-20T04:00:32.009Z,44.08
2018-02-20T04:02:59.559Z,50.67
2018-02-20T04:05:27.067Z,47.53
2018-02-20T04:07:55.358Z,44.53
2018-02-20T04:10:22.900Z,50.00
2018-02-20T04:12:50.424Z,49.20
2018-02-20T04:15:17.938Z,50.53
2018-02-20T04:17:45.487Z,49.88
2018-02-20T04:20:13.002Z,48.53
2018-02-20T04:22:40.551Z,53.92
2018-02-20T04:25:08.066Z,45.40
2018-02-20T04:27:35.567Z,49.05
2018-02-20T04:30:03.103Z,50.67
2018-02-20T04:32:30.607Z,49.33
2018-02-20T04:34:58.123Z,49.60
2018-02-20T04:37:25.667Z,52.55
2018-02-20T04:39:53.176Z,55.15
2018-02-20T04:42:21.474Z,45.33
2018-02-20T04:44:49.727Z,51.37
2018-02-20T04:47:18.056Z,51.58
2018-02-20T04:49:46.491Z,47.03
2018-02-20T04:52:14.029Z,47.60
2018-02-20T04:54:41.546Z,48.15
2018-02-20T04:57:09.084Z,49.55
2018-02-20T04:59:37.367Z,48.20
2018-02-20T05:02:04.900Z,45.95
2018-02-20T05:04:32.430Z,50.80
2018-02-20T05:06:59.942Z,48.92
2018-02-20T05:09:28.231Z,51.13
2018-02-20T05:11:55.739Z,53.28
2018-02-20T05:14:23.367Z,54.58
2018-02-20T05:16:50.861Z,54.10
2018-02-20T05:19:18.368Z,48.47
2018-02-20T05:21:45.890Z,51.55
2018-02-20T05:24:15.469Z,52.00
2018-02-20T05:26:42.987Z,51.22
2018-02-20T05:29:10.482Z,54.00
2018-02-20T05:31:37.972Z,56.78
2018-02-20T05:34:05.535Z,47.90
2018-02-20T05:36:33.813Z,51.88
2018-02-20T05:39:02.095Z,50.25
2018-02-20T05:41:30.359Z,50.95
2018-02-20T05:43:59.581Z,54.75
2018-02-20T05:46:27.081Z,51.58
2018-02-20T05:48:55.239Z,54.20
2018-02-20T05:51:23.598Z,54.30
2018-02-20T05:53:51.130Z,54.90
2018-02-20T05:56:19.489Z,54.20
2018-02-20T05:58:47.000Z,52.50
2018-02-20T06:01:14.505Z,51.50
2018-02-20T06:03:42.012Z,57.03
2018-02-20T06:06:09.563Z,56.22
2018-02-20T06:08:37.106Z,51.70
2018-02-20T06:11:05.370Z,54.80
2018-02-20T06:13:32.864Z,52.85
2018-02-20T06:16:00.389Z,49.97
2018-02-20T06:18:28.676Z,52.08
2018-02-20T06:20:56.995Z,56.58
2018-02-20T06:23:24.519Z,52.90
2018-02-20T06:25:52.027Z,55.60
2018-02-20T06:28:19.603Z,62.35
2018-02-20T06:30:47.091Z,61.97
2018-02-20T06:33:15.438Z,53.05
2018-02-20T06:35:42.922Z,55.63
2018-02-20T06:38:11.207Z,53.50
2018-02-20T06:40:38.732Z,60.42
2018-02-20T06:43:06.308Z,56.40
2018-02-20T06:45:34.578Z,55.70
2018-02-20T06:48:02.079Z,56.72
2018-02-20T06:50:29.623Z,55.67
2018-02-20T06:52:57.142Z,57.50
2018-02-20T06:55:24.686Z,50.95
2018-02-20T06:57:52.196Z,59.65
2018-02-20T07:00:19.758Z,50.60
2018-02-20T07:02:47.313Z,51.58
2018-02-20T07:05:14.835Z,52.40
2018-02-20T07:07:42.375Z,52.45
2018-02-20T07:10:09.903Z,55.83
2018-02-20T07:12:37.431Z,51.88
2018-02-20T07:15:05.694Z,53.90
2018-02-20T07:17:33.238Z,51.20
2018-02-20T07:20:00.731Z,55.05
2018-02-20T07:22:28.998Z,56.45
2018-02-20T07:24:57.308Z,51.58
2018-02-20T07:27:24.849Z,53.47
2018-02-20T07:29:53.117Z,59.53
2018-02-20T07:32:21.414Z,57.85
2018-02-20T07:34:48.926Z,54.58
2018-02-20T07:37:16.440Z,56.97
2018-02-20T07:39:43.959Z,55.55
2018-02-20T07:42:12.267Z,55.17
2018-02-20T07:44:39.779Z,48.92
2018-02-20T07:47:07.286Z,62.35
2018-02-20T07:49:34.791Z,55.42
2018-02-20T07:52:02.342Z,54.67
2018-02-20T07:54:29.854Z,57.35
2018-02-20T07:56:57.380Z,55.97
2018-02-20T07:59:24.897Z,61.55
2018-02-20T08:01:52.426Z,54.08
2018-02-20T08:04:19.948Z,57.62
2018-02-20T08:06:47.442Z,62.60
2018-02-20T08:09:14.958Z,56.92
2018-02-20T08:11:42.459Z,58.55
2018-02-20T08:14:09.968Z,57.47
2018-02-20T08:16:37.523Z,64.68
2018-02-20T08:19:05.010Z,57.55
2018-02-20T08:21:33.311Z,56.20
2018-02-20T08:24:00.799Z,47.30
2018-02-20T08:26:28.346Z,50.12
2018-02-20T08:28:55.845Z,50.28
2018-02-20T08:31:23.352Z,52.92
2018-02-20T08:33:50.871Z,53.72
2018-02-20T08:36:18.417Z,55.05
2018-02-20T08:38:45.967Z,58.13
2018-02-20T08:41:13.524Z,50.20
2018-02-20T08:43:41.000Z,56.40
2018-02-20T08:46:08.545Z,51.53
2018-02-20T08:48:36.042Z,56.28
2018-02-20T08:51:03.565Z,49.90
2018-02-20T08:53:31.070Z,52.05
2018-02-20T08:55:58.583Z,55.85
2018-02-20T08:58:26.090Z,48.15
2018-02-20T09:00:53.622Z,50.47
2018-02-20T09:03:21.899Z,52.75
2018-02-20T09:05:49.431Z,46.63
2018-02-20T09:08:16.940Z,50.10
2018-02-20T09:10:44.472Z,49.05
2018-02-20T09:13:12.039Z,47.30
2018-02-20T09:15:40.319Z,51.95
2018-02-20T09:18:07.823Z,47.33
2018-02-20T09:20:35.363Z,51.58
2018-02-20T09:23:02.894Z,49.42
2018-02-20T09:25:31.187Z,50.08
2018-02-20T09:27:58.704Z,46.35
2018-02-20T09:30:26.198Z,52.92
2018-02-20T09:32:53.711Z,47.85
2018-02-20T09:35:21.238Z,49.70
2018-02-20T09:37:48.773Z,47.28
2018-02-20T09:40:16.367Z,45.35
2018-02-20T09:42:43.855Z,48.45
2018-02-20T09:45:11.406Z,50.40
2018-02-20T09:47:38.934Z,48.05
2018-02-20T09:50:06.482Z,50.90
2018-02-20T09:52:33.991Z,58.22
2018-02-20T09:55:01.503Z,57.80
2018-02-20T09:57:29.067Z,52.40
2018-02-20T09:59:56.566Z,52.20
2018-02-20T10:02:24.074Z,50.47
2018-02-20T10:04:51.634Z,52.72
2018-02-20T10:07:19.140Z,46.20
2018-02-20T10:09:46.678Z,45.15
2018-02-20T10:12:14.174Z,48.22
2018-02-20T10:14:42.475Z,46.20
2018-02-20T10:17:09.990Z,48.20
2018-02-20T10:19:37.519Z,46.67
2018-02-20T10:22:05.042Z,39.97
2018-02-20T10:24:32.581Z,38.35
2018-02-20T10:27:00.858Z,37.50
2018-02-20T10:29:29.158Z,40.40
2018-02-20T10:31:56.694Z,50.05
2018-02-20T10:34:24.967Z,40.33
2018-02-20T10:36:52.507Z,42.17
2018-02-20T10:39:20.047Z,42.53
2018-02-20T10:41:47.584Z,41.25
2018-02-20T10:44:15.554Z,40.08
2018-02-20T10:46:43.091Z,43.15
2018-02-20T10:49:10.642Z,38.63
2018-02-20T10:51:38.938Z,36.28
2018-02-20T10:54:07.318Z,41.20
2018-02-20T10:56:39.596Z,40.90
2018-02-20T10:59:07.127Z,41.95
2018-02-20T11:01:35.447Z,40.75
2018-02-20T11:04:02.974Z,39.38
2018-02-20T11:06:30.485Z,39.33
2018-02-20T11:08:58.033Z,43.28
2018-02-20T11:11:25.575Z,41.75
2018-02-20T11:13:53.080Z,42.05
2018-02-20T11:16:20.622Z,40.12
2018-02-20T11:18:48.148Z,41.30
2018-02-20T11:21:15.642Z,35.70
2018-02-20T11:23:43.153Z,33.97
2018-02-20T11:26:10.684Z,37.47
2018-02-20T11:28:39.002Z,31.87
2018-02-20T11:31:06.849Z,39.20
2018-02-20T11:33:34.397Z,36.45
2018-02-20T11:36:02.709Z,36.67
2018-02-20T11:38:30.206Z,32.72
2018-02-20T11:40:57.721Z,34.92
2018-02-20T11:43:25.243Z,34.45
2018-02-20T11:45:53.545Z,36.97
2018-02-20T11:48:21.086Z,34.22
2018-02-20T11:50:49.434Z,39.13
2018-02-20T11:53:16.944Z,36.67
2018-02-20T11:55:44.470Z,34.47
2018-02-20T11:58:12.760Z,38.33
2018-02-20T12:00:40.271Z,35.20
2018-02-20T12:03:07.826Z,35.88
2018-02-20T12:05:35.331Z,34.45
2018-02-20T12:08:02.850Z,35.75
2018-02-20T12:10:30.392Z,36.97
2018-02-20T12:12:57.962Z,36.03
2018-02-20T12:15:25.495Z,41.13
2018-02-20T12:17:53.011Z,40.47
2018-02-20T12:20:21.342Z,40.33
2018-02-20T12:22:48.849Z,43.63
2018-02-20T12:25:17.142Z,41.92
2018-02-20T12:27:44.682Z,39.20
2018-02-20T12:30:12.971Z,42.95
2018-02-20T12:32:41.243Z,36.83
2018-02-20T12:35:09.534Z,35.70
2018-02-20T12:37:37.050Z,39.28
2018-02-20T12:40:04.567Z,38.05
2018-02-20T12:42:32.864Z,47.17
2018-02-20T12:45:00.542Z,45.15
2018-02-20T12:47:28.940Z,39.13
2018-02-20T12:49:57.226Z,42.25
2018-02-20T12:52:25.525Z,41.90
2018-02-20T12:54:53.039Z,42.58
2018-02-20T12:57:20.589Z,39.28
2018-02-20T12:59:48.156Z,41.73
2018-02-20T13:02:15.729Z,45.40
2018-02-20T13:04:44.547Z,38.08
2018-02-20T13:07:12.066Z,37.70
2018-02-20T13:09:40.383Z,44.88
2018-02-20T13:12:07.919Z,42.07
2018-02-20T13:14:36.265Z,39.67
2018-02-20T13:17:03.741Z,39.60
2018-02-20T13:19:32.050Z,40.78
2018-02-20T13:21:59.594Z,39.37
2018-02-20T13:24:27.122Z,37.05
2018-02-20T13:26:54.663Z,43.50
2018-02-20T13:29:22.186Z,40.53
2018-02-20T13:31:49.712Z,42.73
2018-02-20T13:34:17.228Z,38.37
2018-02-20T13:36:44.759Z,46.93
2018-02-20T13:39:12.278Z,46.40
2018-02-20T13:41:39.809Z,54.05
2018-02-20T13:44:07.337Z,46.92
2018-02-20T13:46:36.345Z,47.38
2018-02-20T13:49:03.869Z,49.85
2018-02-20T13:51:33.529Z,48.87
2018-02-20T13:54:01.085Z,50.03
2018-02-20T13:56:30.185Z,49.55
2018-02-20T13:58:58.693Z,51.85
2018-02-20T14:01:26.226Z,51.60
2018-02-20T14:03:53.976Z,46.40
2018-02-20T14:06:21.524Z,49.83
2018-02-20T14:08:49.080Z,51.63
2018-02-20T14:11:16.611Z,51.08
2018-02-20T14:13:45.717Z,48.00
2018-02-20T14:16:14.017Z,44.17
2018-02-20T14:18:48.468Z,45.40
2018-02-20T14:21:15.999Z,51.50
2018-02-20T14:23:43.544Z,47.33
2018-02-20T14:26:11.067Z,48.55
2018-02-20T14:28:38.599Z,51.40
2018-02-20T14:31:06.127Z,49.22
2018-02-20T14:33:34.642Z,49.65
2018-02-20T14:36:02.171Z,54.08
2018-02-20T14:38:29.709Z,48.28
2018-02-20T14:40:57.993Z,50.83
2018-02-20T14:43:25.531Z,51.67
2018-02-20T14:45:53.052Z,52.55
2018-02-20T14:48:20.584Z,51.10
2018-02-20T14:50:48.092Z,48.30
2018-02-20T14:53:15.621Z,50.17
2018-02-20T14:55:43.147Z,53.00
2018-02-20T14:58:10.721Z,50.08
2018-02-20T15:00:38.231Z,49.03
2018-02-20T15:03:05.745Z,49.80
2018-02-20T15:05:33.300Z,58.38
2018-02-20T15:08:00.810Z,48.22
2018-02-20T15:10:28.332Z,45.85
2018-02-20T15:12:55.898Z,48.78
2018-02-20T15:15:23.437Z,49.92
2018-02-20T15:17:50.964Z,49.75
2018-02-20T15:20:19.284Z,50.97
2018-02-20T15:22:46.818Z,55.97
2018-02-20T15:25:14.356Z,48.60
2018-02-20T15:27:42.651Z,48.40
2018-02-20T15:30:10.212Z,47.92
2018-02-20T15:32:37.720Z,44.08
2018-02-20T15:35:05.223Z,49.22
2018-02-20T15:37:33.953Z,47.35
2018-02-20T15:40:01.458Z,43.65
2018-02-20T15:42:29.756Z,48.08
2018-02-20T15:45:00.120Z,42.40
2018-02-20T15:47:27.686Z,47.17
2018-02-20T15:49:55.228Z,45.83
2018-02-20T15:52:22.803Z,46.60
2018-02-20T15:54:50.357Z,49.67
2018-02-20T15:57:17.951Z,46.92
2018-02-20T15:59:45.426Z,41.08
2018-02-20T16:02:12.972Z,41.65
2018-02-20T16:04:40.503Z,48.58
2018-02-20T16:07:08.042Z,44.78
2018-02-20T16:09:35.554Z,43.65
2018-02-20T16:12:03.095Z,41.78
2018-02-20T16:14:31.407Z,47.95
2018-02-20T16:16:59.714Z,44.63
2018-02-20T16:19:27.263Z,49.50
2018-02-20T16:21:54.947Z,39.75
2018-02-20T16:24:22.480Z,38.10
2018-02-20T16:26:50.009Z,37.30
2018-02-20T16:29:17.510Z,39.50
2018-02-20T16:31:45.053Z,41.25
2018-02-20T16:34:12.557Z,38.15
2018-02-20T16:36:40.137Z,39.03
2018-02-20T16:39:08.413Z,40.05
2018-02-20T16:41:36.706Z,40.97
2018-02-20T16:44:04.251Z,41.83
2018-02-20T16:46:32.531Z,39.13
2018-02-20T16:49:00.049Z,40.50
2018-02-20T16:51:27.579Z,39.60
2018-02-20T16:53:55.103Z,41.42
2018-02-20T16:56:23.359Z,42.00
2018-02-20T16:58:50.902Z,39.97
2018-02-20T17:01:18.431Z,40.03
2018-02-20T17:03:45.994Z,42.78
2018-02-20T17:06:13.500Z,44.22
2018-02-20T17:08:41.825Z,40.78
2018-02-20T17:11:09.342Z,43.47
2018-02-20T17:13:37.661Z,39.47
2018-02-20T17:16:05.188Z,37.88
2018-02-20T17:18:32.747Z,37.65
2018-02-20T17:21:00.292Z,43.28
2018-02-20T17:23:28.621Z,42.00
2018-02-20T17:25:56.146Z,45.97
2018-02-20T17:28:23.683Z,46.05
2018-02-20T17:30:51.972Z,50.00
2018-02-20T17:33:19.484Z,48.35
2018-02-20T17:35:47.026Z,60.35
2018-02-20T17:38:14.559Z,60.40
2018-02-20T17:40:42.142Z,56.75
2018-02-20T17:43:09.715Z,55.65
2018-02-20T17:45:37.236Z,58.50
2018-02-20T17:48:04.781Z,62.62
2018-02-20T17:50:33.064Z,61.20
2018-02-20T17:53:01.367Z,57.88
2018-02-20T17:55:28.891Z,62.60
2018-02-20T17:57:57.187Z,61.60
2018-02-20T18:00:24.749Z,61.58
2018-02-20T18:02:52.260Z,59.63
2018-02-20T18:05:19.836Z,57.67
2018-02-20T18:07:47.343Z,53.45
2018-02-20T18:10:14.860Z,52.83
2018-02-20T18:12:43.161Z,57.42
2018-02-20T18:15:10.689Z,52.38
2018-02-20T18:17:39.031Z,62.13
2018-02-20T18:20:06.602Z,56.42
2018-02-20T18:22:34.133Z,54.15
2018-02-20T18:25:01.689Z,56.63
2018-02-20T18:27:29.213Z,55.12
2018-02-20T18:29:57.548Z,55.63
2018-02-20T18:32:25.101Z,51.97
2018-02-20T18:34:52.932Z,53.83
2018-02-20T18:37:21.300Z,55.65
2018-02-20T18:39:48.870Z,55.35
2018-02-20T18:42:16.467Z,61.00
2018-02-20T18:44:44.449Z,56.28
2018-02-20T18:47:12.515Z,61.30
2018-02-20T18:49:40.130Z,58.35
2018-02-20T18:52:07.689Z,61.03
2018-02-20T18:54:35.453Z,54.97
2018-02-20T18:57:02.997Z,57.62
2018-02-20T18:59:31.414Z,63.35
2018-02-20T19:01:59.794Z,55.53
2018-02-20T19:04:27.783Z,64.72
2018-02-20T19:06:56.140Z,59.17
2018-02-20T19:09:23.740Z,55.45
2018-02-20T19:11:51.700Z,55.38
2018-02-20T19:14:19.679Z,55.40
2018-02-20T19:16:47.275Z,60.10
2018-02-20T19:19:14.813Z,72.05
2018-02-20T19:21:43.219Z,56.65
2018-02-20T19:24:10.731Z,52.00
2018-02-20T19:26:39.029Z,52.72
2018-02-20T19:29:07.471Z,54.55
2018-02-20T19:31:35.915Z,55.30
2018-02-20T19:34:05.546Z,52.50
2018-02-20T19:36:33.083Z,53.78
2018-02-20T19:39:01.420Z,52.72
2018-02-20T19:41:36.433Z,54.40
2018-02-20T19:44:04.967Z,66.22
2018-02-20T19:46:32.749Z,56.97
2018-02-20T19:49:00.281Z,56.45
2018-02-20T19:51:28.948Z,57.83
2018-02-20T19:53:56.603Z,59.85
2018-02-20T19:56:24.197Z,53.85
2018-02-20T19:58:51.747Z,56.65
2018-02-20T20:01:20.196Z,54.95
2018-02-20T20:03:48.266Z,55.08
2018-02-20T20:06:15.917Z,60.90
2018-02-20T20:08:43.508Z,59.28
2018-02-20T20:11:11.785Z,59.10
2018-02-20T20:13:40.231Z,55.00
2018-02-20T20:16:08.132Z,65.93
2018-02-20T20:18:36.580Z,60.67
2018-02-20T20:21:05.115Z,57.58
2018-02-20T20:23:32.842Z,64.03
2018-02-20T20:26:00.509Z,64.12
2018-02-20T20:28:29.627Z,63.50
2018-02-20T20:30:58.449Z,68.10
2018-02-20T20:33:26.027Z,57.88
2018-02-20T20:35:53.546Z,59.00
2018-02-20T20:38:21.371Z,62.47
2018-02-20T20:40:49.407Z,62.60
2018-02-20T20:43:17.133Z,67.07
2018-02-20T20:45:44.785Z,61.90
2018-02-20T20:48:13.272Z,59.35
2018-02-20T20:50:41.818Z,57.40
2018-02-20T20:53:10.495Z,63.35
2018-02-20T20:55:38.072Z,60.97
2018-02-20T20:58:05.617Z,68.95
2018-02-20T21:00:33.725Z,63.13
2018-02-20T21:03:02.292Z,58.75
2018-02-20T21:05:30.348Z,67.43
2018-02-20T21:07:57.955Z,59.10
2018-02-20T21:10:26.350Z,61.13
2018-02-20T21:12:54.106Z,65.20
2018-02-20T21:15:22.629Z,63.47
2018-02-20T21:17:50.832Z,64.05
2018-02-20T21:20:18.424Z,61.53
2018-02-20T21:22:46.099Z,57.78
2018-02-20T21:25:13.764Z,57.70
2018-02-20T21:27:41.301Z,59.92
2018-02-20T21:30:09.614Z,59.42
2018-02-20T21:32:37.306Z,63.33
2018-02-20T21:35:05.285Z,54.80
2018-02-20T21:37:33.802Z,54.00
2018-02-20T21:40:01.426Z,57.13
2018-02-20T21:42:29.380Z,60.20
2018-02-20T21:44:57.257Z,59.90
2018-02-20T21:47:25.213Z,54.47
2018-02-20T21:49:52.813Z,67.40
2018-02-20T21:52:20.712Z,60.92
2018-02-20T21:54:48.885Z,51.83
2018-02-20T21:57:16.488Z,60.12
2018-02-20T21:59:45.834Z,60.38
2018-02-20T22:02:13.520Z,71.57
2018-02-20T22:04:41.565Z,59.58
2018-02-20T22:07:10.222Z,60.22
2018-02-20T22:09:38.127Z,59.00
2018-02-20T22:12:05.695Z,59.78
2018-02-20T22:14:33.344Z,54.70
2018-02-20T22:17:01.360Z,58.67
2018-02-20T22:19:29.688Z,55.72
2018-02-20T22:21:57.238Z,56.92
2018-02-20T22:24:24.764Z,58.28
2018-02-20T22:26:52.895Z,54.65
2018-02-20T22:29:20.666Z,58.05
2018-02-20T22:31:48.258Z,55.20
2018-02-20T22:34:15.797Z,58.25
2018-02-20T22:36:43.558Z,55.20
2018-02-20T22:39:11.389Z,56.17
2018-02-20T22:41:39.767Z,55.92
2018-02-20T22:44:07.303Z,56.67
2018-02-20T22:46:35.596Z,59.80
2018-02-20T22:49:03.126Z,66.07
2018-02-20T22:51:30.649Z,55.45
2018-02-20T22:53:58.202Z,63.45
2018-02-20T22:56:25.705Z,66.30
2018-02-20T22:58:54.028Z,60.12
2018-02-20T23:01:21.567Z,62.90
2018-02-20T23:03:49.088Z,60.45
2018-02-20T23:06:16.594Z,62.40
2018-02-20T23:08:44.124Z,58.45
2018-02-20T23:11:12.418Z,62.70
2018-02-20T23:13:39.924Z,61.83
2018-02-20T23:16:07.459Z,68.53
2018-02-20T23:18:34.991Z,59.65
2018-02-20T23:21:02.539Z,59.45
2018-02-20T23:23:30.849Z,61.75
2018-02-20T23:25:58.342Z,61.10
2018-02-20T23:28:25.917Z,65.22
2018-02-20T23:30:53.447Z,67.75
2018-02-20T23:33:20.983Z,67.70
2018-02-20T23:35:48.492Z,60.03
2018-02-20T23:38:16.000Z,62.42
2018-02-20T23:40:43.525Z,62.60
2018-02-20T23:43:11.805Z,69.72
2018-02-20T23:45:39.331Z,66.62
2018-02-20T23:48:06.871Z,67.05
2018-02-20T23:50:34.385Z,62.15
2018-02-20T23:53:01.914Z,61.47
2018-02-20T23:55:31.140Z,63.67
2018-02-20T23:57:59.428Z,64.05
